Time;durP1;ratioP1;P1;durP2;ratioP2;P2;SDS_P1;SDS_P2;PMS_P1;PMS_P2;Temp;Humidity;BMP_temperature;BMP_pressure;BME280_temperature;BME280_humidity;BME280_pressure;Samples;Min_cycle;Max_cycle;Signal;HPM_P1;HPM_P2
2020/12/13 00:00:16;;;;;;;91.45;29.08;;;7.80;89.80;;;;;;5032507;28;20385;-64
2020/12/13 00:02:42;;;;;;;78.53;24.65;;;7.80;89.80;;;;;;5033131;28;20079;-64
2020/12/13 00:05:07;;;;;;;45.38;16.38;;;7.80;89.70;;;;;;5029002;28;20041;-64
2020/12/13 00:07:34;;;;;;;41.95;15.25;;;7.80;89.70;;;;;;5033138;28;20478;-64
2020/12/13 00:09:59;;;;;;;38.65;14.57;;;7.70;89.70;;;;;;5032728;28;20024;-64
2020/12/13 00:12:25;;;;;;;30.65;13.73;;;7.70;89.90;;;;;;5032611;28;20116;-64
2020/12/13 00:14:50;;;;;;;30.38;14.02;;;7.70;89.90;;;;;;5032537;28;20097;-64
2020/12/13 00:17:17;;;;;;;37.38;14.82;;;7.70;89.80;;;;;;5032574;28;20462;-64
2020/12/13 00:19:43;;;;;;;30.08;14.65;;;7.70;89.80;;;;;;5032544;28;20477;-64
2020/12/13 00:22:08;;;;;;;34.28;14.63;;;7.80;89.90;;;;;;5032170;28;20021;-64
2020/12/13 00:24:34;;;;;;;27.95;13.07;;;7.80;89.70;;;;;;5032622;28;20053;-64
2020/12/13 00:27:00;;;;;;;30.55;13.57;;;7.80;89.70;;;;;;5032424;28;20040;-64
2020/12/13 00:29:25;;;;;;;42.33;17.30;;;7.80;89.60;;;;;;5032361;28;20053;-64
2020/12/13 00:31:51;;;;;;;45.30;18.35;;;7.80;89.60;;;;;;5031994;28;20021;-64
2020/12/13 00:34:17;;;;;;;51.05;18.92;;;7.80;89.50;;;;;;5014801;28;20029;-64
2020/12/13 00:36:42;;;;;;;47.30;17.88;;;7.80;89.30;;;;;;5032242;28;20496;-64
2020/12/13 00:39:08;;;;;;;45.92;17.45;;;7.80;89.30;;;;;;5032363;28;20113;-64
2020/12/13 00:41:34;;;;;;;48.83;17.05;;;7.80;89.40;;;;;;5031602;28;20057;-64
2020/12/13 00:44:00;;;;;;;49.55;17.17;;;7.80;89.40;;;;;;5031290;28;20033;-64
2020/12/13 00:46:25;;;;;;;51.10;18.75;;;7.80;89.40;;;;;;5031909;28;20037;-64
2020/12/13 00:48:51;;;;;;;42.53;16.45;;;7.80;89.30;;;;;;5022956;28;20492;-64
2020/12/13 00:51:26;;;;;;;50.00;17.83;;;7.80;89.30;;;;;;5031655;28;20473;-64
2020/12/13 00:53:52;;;;;;;44.03;16.42;;;7.80;89.50;;;;;;5028056;28;20079;-64
2020/12/13 00:56:17;;;;;;;41.55;15.77;;;7.80;90.00;;;;;;5032066;28;20069;-69
2020/12/13 00:58:43;;;;;;;43.92;17.45;;;7.80;89.60;;;;;;5032014;28;20048;-64
2020/12/13 01:01:08;;;;;;;43.60;15.23;;;7.80;89.50;;;;;;5032067;28;20029;-64
2020/12/13 01:03:34;;;;;;;44.28;16.33;;;7.80;89.50;;;;;;5031736;28;20037;-64
2020/12/13 01:06:00;;;;;;;47.83;16.98;;;7.80;89.40;;;;;;4998869;28;20040;-64
2020/12/13 01:08:26;;;;;;;44.45;16.05;;;7.80;89.40;;;;;;5028660;28;20053;-64
2020/12/13 01:10:51;;;;;;;43.00;16.42;;;7.80;89.40;;;;;;5030767;28;20478;-64
2020/12/13 01:13:17;;;;;;;50.67;17.92;;;7.80;89.40;;;;;;5032437;28;20036;-64
2020/12/13 01:15:42;;;;;;;49.20;16.33;;;7.80;89.30;;;;;;5031980;28;20099;-64
2020/12/13 01:18:08;;;;;;;42.08;16.42;;;7.80;89.30;;;;;;5031808;28;20108;-64
2020/12/13 01:20:34;;;;;;;45.88;16.45;;;7.90;89.40;;;;;;5025969;28;20041;-64
2020/12/13 01:22:59;;;;;;;44.63;15.77;;;7.90;89.40;;;;;;5031575;28;20021;-64
2020/12/13 01:25:25;;;;;;;44.35;16.05;;;7.90;89.30;;;;;;5031875;28;20029;-64
2020/12/13 01:27:50;;;;;;;42.92;16.63;;;7.80;89.30;;;;;;5013355;28;20055;-64
2020/12/13 01:30:16;;;;;;;43.78;16.52;;;7.80;89.20;;;;;;5031184;28;20018;-64
2020/12/13 01:32:42;;;;;;;41.65;16.58;;;7.80;89.30;;;;;;5031567;28;20048;-64
2020/12/13 01:35:10;;;;;;;41.05;16.15;;;7.80;89.30;;;;;;5031810;28;20041;-64
2020/12/13 01:37:35;;;;;;;34.67;14.40;;;7.70;89.20;;;;;;5030268;28;20091;-64
2020/12/13 01:40:04;;;;;;;37.22;15.05;;;7.70;89.40;;;;;;5028853;28;20498;-64
2020/12/13 01:42:40;;;;;;;37.35;14.07;;;7.70;89.50;;;;;;5030122;28;20049;-64
2020/12/13 01:45:07;;;;;;;39.05;15.40;;;7.60;89.50;;;;;;5031693;28;20104;-64
2020/12/13 01:47:33;;;;;;;35.90;14.77;;;7.60;89.60;;;;;;5031043;28;20034;-64
2020/12/13 01:49:58;;;;;;;37.00;15.15;;;7.60;89.60;;;;;;5028890;28;20374;-65
2020/12/13 01:54:56;;;;;;;33.75;14.73;;;7.60;89.70;;;;;;5036004;28;20037;-64
2020/12/13 01:57:23;;;;;;;31.77;14.10;;;7.60;89.70;;;;;;5020718;28;20043;-64
2020/12/13 01:59:50;;;;;;;28.30;13.30;;;7.60;89.60;;;;;;5035031;28;20036;-64
2020/12/13 02:02:22;;;;;;;29.58;12.68;;;7.70;89.70;;;;;;5035753;28;20031;-64
2020/12/13 02:04:53;;;;;;;29.80;12.90;;;7.70;89.60;;;;;;5032047;28;20506;-65
2020/12/13 02:07:20;;;;;;;27.05;12.35;;;7.70;89.60;;;;;;5035691;28;20041;-64
2020/12/13 02:09:45;;;;;;;29.25;13.05;;;7.70;89.60;;;;;;5033883;28;20071;-66
2020/12/13 02:12:11;;;;;;;30.90;13.27;;;7.70;89.70;;;;;;5035441;28;20501;-64
2020/12/13 02:14:37;;;;;;;27.52;13.52;;;7.70;89.70;;;;;;5035280;28;20378;-64
2020/12/13 02:17:02;;;;;;;30.92;13.77;;;7.80;89.70;;;;;;5034501;28;20045;-64
2020/12/13 02:19:28;;;;;;;29.08;12.70;;;7.80;89.60;;;;;;5034774;28;20022;-64
2020/12/13 02:21:54;;;;;;;28.63;12.55;;;7.80;89.50;;;;;;5034568;28;20042;-64
2020/12/13 02:24:19;;;;;;;24.58;12.35;;;7.70;89.50;;;;;;5034980;28;20074;-64
2020/12/13 02:26:46;;;;;;;28.15;12.77;;;7.70;89.50;;;;;;5035001;28;20370;-64
2020/12/13 02:29:12;;;;;;;28.55;12.93;;;7.70;89.60;;;;;;5034268;28;20075;-64
2020/12/13 02:31:38;;;;;;;29.33;12.80;;;7.70;89.70;;;;;;5034245;28;20049;-64
2020/12/13 02:34:05;;;;;;;27.45;12.88;;;7.60;89.80;;;;;;5035307;28;20377;-64
2020/12/13 02:36:32;;;;;;;25.98;13.02;;;7.70;89.80;;;;;;5034444;28;20029;-64
2020/12/13 02:38:59;;;;;;;32.10;13.85;;;7.70;89.80;;;;;;5034501;28;20033;-64
2020/12/13 02:41:25;;;;;;;27.85;13.07;;;7.80;89.70;;;;;;5033908;28;20045;-64
2020/12/13 02:43:50;;;;;;;24.75;11.98;;;7.80;89.50;;;;;;5034777;28;20040;-64
2020/12/13 02:46:16;;;;;;;20.38;10.68;;;7.80;89.40;;;;;;5034674;28;20025;-64
2020/12/13 02:48:42;;;;;;;21.50;11.27;;;7.80;89.40;;;;;;5033584;28;20076;-64
2020/12/13 02:51:07;;;;;;;19.95;10.82;;;7.70;89.30;;;;;;5034418;28;20045;-64
2020/12/13 02:53:33;;;;;;;21.98;10.68;;;7.70;89.40;;;;;;5034374;28;20037;-64
2020/12/13 02:55:58;;;;;;;18.75;9.85;;;7.80;89.30;;;;;;5034891;28;20084;-64
2020/12/13 02:58:24;;;;;;;17.60;9.95;;;7.80;89.30;;;;;;5034679;28;20535;-64
2020/12/13 03:00:50;;;;;;;19.50;9.45;;;7.70;89.20;;;;;;5033169;28;20077;-64
2020/12/13 03:03:15;;;;;;;16.67;9.68;;;7.70;89.20;;;;;;5034582;28;20037;-64
2020/12/13 03:05:41;;;;;;;17.52;8.93;;;7.70;89.20;;;;;;5026190;28;20501;-64
2020/12/13 03:08:07;;;;;;;14.77;8.25;;;7.70;89.30;;;;;;5034510;28;20029;-64
2020/12/13 03:10:33;;;;;;;17.20;9.05;;;7.70;89.30;;;;;;5033667;28;20433;-64
2020/12/13 03:12:58;;;;;;;17.08;8.63;;;7.70;89.30;;;;;;5034041;28;20037;-64
2020/12/13 03:15:24;;;;;;;16.15;8.20;;;7.70;89.20;;;;;;5034286;28;20057;-64
2020/12/13 03:17:49;;;;;;;14.65;8.13;;;7.70;89.70;;;;;;5033838;28;20108;-64
2020/12/13 03:20:15;;;;;;;15.65;8.07;;;7.70;89.40;;;;;;5033392;28;20045;-64
2020/12/13 03:22:40;;;;;;;13.27;7.63;;;7.70;89.40;;;;;;5034294;28;20532;-63
2020/12/13 03:25:06;;;;;;;12.43;7.20;;;7.70;89.40;;;;;;5033164;28;20107;-64
2020/12/13 03:27:32;;;;;;;11.70;7.20;;;7.80;89.30;;;;;;5033616;28;20049;-64
2020/12/13 03:29:57;;;;;;;14.30;7.65;;;7.80;89.30;;;;;;5032725;28;20043;-65
2020/12/13 03:32:23;;;;;;;13.43;7.70;;;7.80;89.30;;;;;;5034249;28;20025;-64
2020/12/13 03:34:49;;;;;;;11.20;7.28;;;7.80;89.20;;;;;;5033493;28;20087;-64
2020/12/13 03:37:16;;;;;;;12.65;7.35;;;7.80;89.20;;;;;;5032935;28;20038;-64
2020/12/13 03:39:42;;;;;;;14.52;6.85;;;7.80;89.30;;;;;;5033454;28;20502;-64
2020/12/13 03:42:07;;;;;;;13.35;7.60;;;7.80;89.20;;;;;;5033642;28;20041;-64
2020/12/13 03:44:33;;;;;;;12.90;7.22;;;7.80;89.30;;;;;;5033880;28;20029;-64
2020/12/13 03:46:58;;;;;;;12.52;7.22;;;7.80;89.30;;;;;;5032414;28;20053;-64
2020/12/13 03:49:24;;;;;;;13.95;7.53;;;7.80;89.30;;;;;;5033529;28;20025;-64
2020/12/13 03:51:50;;;;;;;12.95;7.50;;;7.80;89.30;;;;;;5032437;28;20440;-64
2020/12/13 03:54:15;;;;;;;12.60;6.90;;;7.80;89.30;;;;;;5033592;28;20038;-64
2020/12/13 03:56:41;;;;;;;11.10;6.70;;;7.80;89.30;;;;;;5033108;28;20034;-64
2020/12/13 03:59:06;;;;;;;10.45;6.50;;;7.80;89.30;;;;;;5032258;28;20022;-64
2020/12/13 04:01:32;;;;;;;12.88;6.50;;;7.80;89.30;;;;;;5031060;28;20041;-64
2020/12/13 04:03:57;;;;;;;12.00;6.78;;;7.90;89.40;;;;;;5032841;28;20513;-64
2020/12/13 04:06:23;;;;;;;16.52;6.93;;;7.90;89.40;;;;;;5031906;28;20032;-64
2020/12/13 04:08:48;;;;;;;12.30;6.68;;;7.90;89.20;;;;;;5033271;28;20486;-65
2020/12/13 04:11:14;;;;;;;11.93;5.97;;;7.90;89.40;;;;;;5032903;28;20041;-64
2020/12/13 04:13:40;;;;;;;13.50;6.90;;;7.90;89.30;;;;;;5032816;28;20034;-64
2020/12/13 04:16:05;;;;;;;11.90;6.30;;;7.90;89.40;;;;;;5015072;28;20022;-64
2020/12/13 04:18:31;;;;;;;11.88;6.75;;;7.90;89.40;;;;;;5032940;28;20037;-64
2020/12/13 04:20:56;;;;;;;12.18;5.75;;;7.90;89.40;;;;;;5031796;28;20056;-64
2020/12/13 04:23:22;;;;;;;10.43;6.32;;;8.00;89.40;;;;;;5033135;28;20030;-64
2020/12/13 04:25:47;;;;;;;11.32;6.43;;;7.90;89.30;;;;;;5032678;28;20440;-64
2020/12/13 04:28:13;;;;;;;13.15;6.47;;;8.00;89.40;;;;;;5032458;28;20346;-64
2020/12/13 04:30:38;;;;;;;12.45;6.30;;;7.90;89.40;;;;;;5031662;28;20393;-64
2020/12/13 04:33:06;;;;;;;10.35;6.15;;;8.00;89.50;;;;;;5031075;28;20457;-64
2020/12/13 04:35:32;;;;;;;9.38;5.75;;;8.00;89.50;;;;;;5032709;28;20030;-64
2020/12/13 04:37:57;;;;;;;10.27;5.95;;;8.00;89.40;;;;;;5014272;28;20497;-64
2020/12/13 04:40:23;;;;;;;11.48;6.07;;;8.00;89.40;;;;;;5032714;28;20079;-64
2020/12/13 04:42:49;;;;;;;12.07;6.85;;;8.10;89.30;;;;;;5032616;28;20109;-64
2020/12/13 04:45:15;;;;;;;11.43;6.00;;;8.00;89.30;;;;;;5032264;28;20386;-64
2020/12/13 04:48:02;;;;;;;13.70;6.75;;;8.10;89.30;;;;;;5031870;28;20040;-64
2020/12/13 04:50:30;;;;;;;10.77;6.93;;;8.10;89.20;;;;;;5016796;28;20062;-64
2020/12/13 04:52:57;;;;;;;12.18;7.00;;;8.10;88.90;;;;;;5032656;28;20022;-64
2020/12/13 04:55:23;;;;;;;12.48;6.68;;;8.10;88.90;;;;;;5031336;28;20112;-64
2020/12/13 04:57:48;;;;;;;11.77;6.50;;;8.00;89.10;;;;;;5031760;28;20203;-64
2020/12/13 05:00:17;;;;;;;13.68;6.93;;;8.00;89.10;;;;;;5031650;28;20480;-64
2020/12/13 05:02:43;;;;;;;15.60;6.63;;;8.00;89.00;;;;;;5032763;28;20043;-64
2020/12/13 05:05:10;;;;;;;11.82;6.70;;;8.00;89.10;;;;;;5028420;28;20505;-64
2020/12/13 05:07:36;;;;;;;12.15;6.95;;;7.90;89.10;;;;;;5031063;28;20728;-64
2020/12/13 05:10:03;;;;;;;12.48;6.47;;;7.90;89.30;;;;;;5030094;28;20029;-65
2020/12/13 05:12:29;;;;;;;14.88;6.72;;;7.90;89.40;;;;;;5030887;28;20523;-64
2020/12/13 05:14:54;;;;;;;10.20;6.50;;;8.00;89.40;;;;;;5031986;28;20140;-64
2020/12/13 05:17:20;;;;;;;11.35;6.40;;;8.00;89.40;;;;;;5031457;28;20394;-64
2020/12/13 05:19:49;;;;;;;10.93;5.97;;;8.00;89.30;;;;;;5031845;28;20026;-64
2020/12/13 05:22:20;;;;;;;10.32;6.10;;;8.00;89.20;;;;;;5028299;28;20041;-64
2020/12/13 05:24:45;;;;;;;12.57;6.25;;;8.00;89.20;;;;;;5030373;28;20032;-64
2020/12/13 05:27:11;;;;;;;10.27;5.97;;;8.00;89.10;;;;;;5013255;28;20021;-64
2020/12/13 05:29:38;;;;;;;14.80;6.78;;;8.00;89.30;;;;;;5036668;28;20021;-64
2020/12/13 05:32:09;;;;;;;13.48;6.50;;;8.00;89.30;;;;;;5037865;28;20075;-64
2020/12/13 05:34:36;;;;;;;11.77;6.57;;;8.00;89.30;;;;;;5038268;28;20453;-64
2020/12/13 05:37:06;;;;;;;9.25;6.32;;;7.90;89.20;;;;;;5038100;28;20033;-64
2020/12/13 05:39:35;;;;;;;12.05;6.13;;;7.90;89.30;;;;;;5037472;28;20124;-64
2020/12/13 05:42:00;;;;;;;10.60;6.05;;;7.90;89.40;;;;;;5038476;28;20036;-64
2020/12/13 05:45:02;;;;;;;12.40;6.68;;;7.90;89.40;;;;;;5038306;28;20120;-64
2020/12/13 05:52:43;;;;;;;16.05;9.00;;;7.90;89.40;;;;;;5038149;28;20025;-64
2020/12/13 05:55:10;;;;;;;18.30;10.02;;;7.80;89.50;;;;;;5037758;28;20095;-65
2020/12/13 05:57:37;;;;;;;19.05;9.93;;;7.90;89.60;;;;;;5038525;28;20465;-64
2020/12/13 06:03:54;;;;;;;18.77;10.30;;;7.90;89.70;;;;;;5031661;28;20512;-64
2020/12/13 06:06:24;;;;;;;19.90;10.43;;;7.90;89.50;;;;;;5019264;28;20473;-64
2020/12/13 06:09:10;;;;;;;20.92;11.07;;;8.00;89.60;;;;;;5033559;28;20481;-64
2020/12/13 06:11:46;;;;;;;19.48;10.15;;;7.90;89.50;;;;;;5037929;28;20029;-64
2020/12/13 06:14:22;;;;;;;19.40;10.63;;;7.90;89.50;;;;;;5038411;28;20358;-64
2020/12/13 06:16:49;;;;;;;30.60;14.60;;;7.90;89.60;;;;;;5037919;28;20575;-64
2020/12/13 06:19:18;;;;;;;21.10;11.25;;;7.90;89.50;;;;;;5037871;28;20144;-64
2020/12/13 06:21:45;;;;;;;21.92;11.05;;;7.90;89.70;;;;;;5038333;28;20037;-64
2020/12/13 06:24:11;;;;;;;22.17;11.65;;;7.90;89.80;;;;;;5037417;28;20044;-64
2020/12/13 06:26:38;;;;;;;25.08;12.85;;;7.90;89.70;;;;;;5032877;28;20093;-64
2020/12/13 06:29:05;;;;;;;23.58;12.95;;;7.90;89.70;;;;;;5037739;28;20021;-64
2020/12/13 06:31:32;;;;;;;25.83;13.30;;;7.90;89.70;;;;;;5038309;28;20021;-64
2020/12/13 06:33:58;;;;;;;27.00;13.23;;;7.90;89.70;;;;;;5037682;28;20521;-64
2020/12/13 06:36:25;;;;;;;26.90;12.68;;;7.90;89.70;;;;;;5037995;28;20021;-64
2020/12/13 06:38:53;;;;;;;26.80;13.65;;;7.90;89.70;;;;;;5035855;28;20096;-64
2020/12/13 06:41:23;;;;;;;25.23;12.77;;;7.90;89.80;;;;;;5034003;28;20029;-64
2020/12/13 06:43:55;;;;;;;37.58;19.25;;;7.90;89.80;;;;;;5034534;28;20083;-64
2020/12/13 06:46:24;;;;;;;23.03;13.27;;;7.90;89.80;;;;;;5035137;28;20486;-64
2020/12/13 06:48:50;;;;;;;28.98;13.50;;;7.90;89.80;;;;;;5034290;28;20175;-64
2020/12/13 06:51:18;;;;;;;24.98;12.70;;;7.90;89.70;;;;;;5033970;28;20080;-64
2020/12/13 06:53:44;;;;;;;27.63;12.75;;;8.00;89.80;;;;;;5035228;28;20021;-64
2020/12/13 06:56:14;;;;;;;26.92;12.98;;;7.90;89.70;;;;;;5032624;28;20029;-64
2020/12/13 06:58:47;;;;;;;26.95;13.13;;;7.90;89.70;;;;;;5034600;28;20026;-64
2020/12/13 07:01:18;;;;;;;25.73;12.98;;;7.90;89.80;;;;;;5031915;28;20053;-64
2020/12/13 07:03:44;;;;;;;26.52;13.45;;;7.90;89.70;;;;;;5033935;28;20439;-64
2020/12/13 07:06:16;;;;;;;28.33;14.43;;;7.90;89.70;;;;;;5027264;28;20371;-64
2020/12/13 07:08:47;;;;;;;27.48;11.98;;;7.90;89.80;;;;;;5035406;28;20045;-64
2020/12/13 07:11:13;;;;;;;26.10;13.20;;;7.90;89.70;;;;;;5031977;28;20028;-64
2020/12/13 07:13:43;;;;;;;23.48;12.75;;;7.90;89.80;;;;;;5032637;28;20394;-64
2020/12/13 07:16:31;;;;;;;26.75;13.05;;;7.90;89.70;;;;;;5034227;28;20017;-64
2020/12/13 07:19:05;;;;;;;22.90;12.38;;;7.80;89.80;;;;;;5033381;28;20049;-64
2020/12/13 07:21:31;;;;;;;24.77;14.00;;;7.80;89.90;;;;;;5033827;28;20042;-64
2020/12/13 07:24:00;;;;;;;22.58;11.85;;;7.80;90.00;;;;;;5033344;28;20021;-64
2020/12/13 07:26:28;;;;;;;20.02;11.68;;;7.80;90.00;;;;;;5032147;28;20033;-64
2020/12/13 07:28:54;;;;;;;20.33;10.88;;;7.80;90.00;;;;;;5015001;28;20052;-64
2020/12/13 07:31:21;;;;;;;17.85;10.38;;;7.80;90.00;;;;;;5032608;28;20031;-64
2020/12/13 07:33:47;;;;;;;19.45;9.88;;;7.70;90.00;;;;;;5032236;28;20076;-64
2020/12/13 07:36:13;;;;;;;18.08;9.75;;;7.80;90.00;;;;;;5033089;28;20025;-65
2020/12/13 07:38:40;;;;;;;18.98;10.27;;;7.80;90.00;;;;;;5033958;28;20433;-64
2020/12/13 07:41:17;;;;;;;15.18;9.40;;;7.70;90.00;;;;;;5033356;28;20087;-64
2020/12/13 07:43:57;;;;;;;15.27;9.07;;;7.70;90.00;;;;;;5032584;28;20045;-64
2020/12/13 07:46:24;;;;;;;16.98;9.32;;;7.70;90.00;;;;;;5032941;28;20033;-64
2020/12/13 07:49:18;;;;;;;15.38;9.38;;;7.70;90.00;;;;;;5033877;28;20056;-64
2020/12/13 07:51:46;;;;;;;15.68;8.65;;;7.70;90.00;;;;;;5033022;28;20492;-66
2020/12/13 07:54:21;;;;;;;15.88;9.15;;;7.70;90.00;;;;;;5033226;28;20041;-64
2020/12/13 07:56:55;;;;;;;16.20;9.20;;;7.70;90.10;;;;;;5033222;28;20104;-64
2020/12/13 07:59:28;;;;;;;14.93;8.73;;;7.60;90.10;;;;;;5031238;28;20508;-64
2020/12/13 08:01:56;;;;;;;16.77;9.45;;;7.60;90.20;;;;;;5014967;28;20033;-64
2020/12/13 08:04:32;;;;;;;18.67;10.23;;;7.60;90.20;;;;;;5032249;28;20048;-64
2020/12/13 08:06:59;;;;;;;16.88;9.75;;;7.60;90.30;;;;;;5033049;28;20030;-64
2020/12/13 08:09:26;;;;;;;19.55;9.77;;;7.60;90.30;;;;;;5032946;28;20046;-64
2020/12/13 08:11:51;;;;;;;17.15;9.45;;;7.60;90.30;;;;;;5033477;28;20030;-64
2020/12/13 08:14:21;;;;;;;14.90;8.35;;;7.60;90.30;;;;;;5032325;28;20025;-64
2020/12/13 08:16:50;;;;;;;18.02;10.05;;;7.60;90.40;;;;;;5013705;28;20022;-64
2020/12/13 08:19:18;;;;;;;17.80;9.20;;;7.60;90.30;;;;;;5022193;28;20026;-64
2020/12/13 08:22:02;;;;;;;15.60;8.70;;;7.60;90.30;;;;;;5033154;28;20031;-63
2020/12/13 08:24:31;;;;;;;18.45;8.88;;;7.70;90.40;;;;;;5014741;28;20032;-64
2020/12/13 08:26:59;;;;;;;16.52;9.05;;;7.70;90.30;;;;;;5032801;28;20060;-64
2020/12/13 08:29:25;;;;;;;17.67;9.27;;;7.70;90.30;;;;;;5012182;28;20512;-64
2020/12/13 08:31:53;;;;;;;23.65;10.27;;;7.70;90.30;;;;;;5032861;28;20025;-64
2020/12/13 08:34:23;;;;;;;21.77;11.13;;;7.80;90.30;;;;;;5014542;28;20080;-64
2020/12/13 08:36:54;;;;;;;21.83;10.80;;;7.80;90.30;;;;;;5032650;28;20033;-64
2020/12/13 08:39:26;;;;;;;21.52;13.45;;;7.80;90.30;;;;;;5010321;28;20045;-64
2020/12/13 08:41:52;;;;;;;18.25;9.90;;;7.90;90.30;;;;;;5032549;28;20124;-64
2020/12/13 08:44:35;;;;;;;18.52;9.95;;;7.90;90.30;;;;;;5031272;28;20033;-64
2020/12/13 08:47:04;;;;;;;14.35;7.90;;;8.00;90.20;;;;;;5032234;28;20112;-64
2020/12/13 08:49:33;;;;;;;16.75;8.43;;;8.00;90.10;;;;;;5030584;28;20040;-64
2020/12/13 08:52:34;;;;;;;12.85;7.57;;;8.00;90.10;;;;;;5032394;28;20017;-64
2020/12/13 08:55:05;;;;;;;9.95;5.72;;;8.00;90.10;;;;;;5018667;28;20052;-64
2020/12/13 08:57:45;;;;;;;10.43;5.82;;;7.90;90.00;;;;;;5032183;28;20104;-65
2020/12/13 09:00:10;;;;;;;8.18;5.38;;;7.90;90.10;;;;;;5012624;28;20382;-64
2020/12/13 09:02:37;;;;;;;8.15;5.28;;;7.90;90.20;;;;;;5031059;28;20047;-64
2020/12/13 09:05:05;;;;;;;7.03;4.53;;;7.90;90.20;;;;;;5029048;28;20112;-63
2020/12/13 09:07:33;;;;;;;5.78;4.30;;;7.90;90.30;;;;;;5031218;28;20025;-64
2020/12/13 09:10:17;;;;;;;5.38;4.22;;;7.90;90.30;;;;;;5013005;28;20044;-64
2020/12/13 09:12:43;;;;;;;16.25;9.48;;;7.80;90.20;;;;;;5013858;28;20370;-64
2020/12/13 09:15:11;;;;;;;7.45;5.35;;;7.80;90.30;;;;;;5032033;28;20026;-64
2020/12/13 09:17:37;;;;;;;4.57;3.30;;;7.80;90.40;;;;;;5031470;28;20128;-64
2020/12/13 09:20:04;;;;;;;5.20;4.18;;;7.80;90.60;;;;;;5031782;28;20026;-64
2020/12/13 09:22:30;;;;;;;3.80;3.15;;;7.80;90.30;;;;;;5031836;28;20032;-64
2020/12/13 09:24:57;;;;;;;3.22;2.92;;;7.80;90.30;;;;;;5031791;28;20117;-64
2020/12/13 09:27:23;;;;;;;6.93;4.53;;;7.80;90.30;;;;;;5030415;28;20029;-64
2020/12/13 09:29:50;;;;;;;5.55;4.22;;;7.80;90.10;;;;;;5013413;28;20064;-64
2020/12/13 09:32:17;;;;;;;4.40;3.92;;;7.80;90.20;;;;;;5031543;28;20497;-64
2020/12/13 09:34:43;;;;;;;5.80;3.85;;;7.80;90.30;;;;;;5031991;28;20061;-64
2020/12/13 09:37:11;;;;;;;5.80;4.10;;;7.80;90.30;;;;;;5031937;28;20123;-64
2020/12/13 09:39:37;;;;;;;4.20;3.80;;;7.90;90.30;;;;;;5031256;28;20381;-64
2020/12/13 09:42:03;;;;;;;5.72;4.45;;;7.90;90.20;;;;;;5028302;28;20064;-63
2020/12/13 09:44:30;;;;;;;5.03;3.90;;;7.90;90.20;;;;;;5027055;28;20032;-64
2020/12/13 09:46:57;;;;;;;4.07;3.67;;;7.90;90.20;;;;;;5026349;28;20358;-63
2020/12/13 09:49:23;;;;;;;7.10;4.50;;;7.90;90.20;;;;;;5012384;28;20033;-64
2020/12/13 09:51:54;;;;;;;5.63;4.68;;;7.90;90.20;;;;;;5032087;28;20052;-63
2020/12/13 09:54:20;;;;;;;5.93;4.60;;;7.90;90.10;;;;;;5032210;28;20026;-62
2020/12/13 09:56:45;;;;;;;7.57;4.10;;;7.90;90.00;;;;;;5030775;28;20470;-64
2020/12/13 09:59:11;;;;;;;5.07;4.05;;;7.90;90.10;;;;;;5030523;28;20029;-63
2020/12/13 10:01:36;;;;;;;4.28;3.60;;;7.90;90.10;;;;;;5021277;28;20116;-64
2020/12/13 10:04:02;;;;;;;5.65;3.42;;;7.90;90.10;;;;;;5028168;28;20633;-64
2020/12/13 10:06:34;;;;;;;5.25;3.83;;;8.00;90.10;;;;;;5022937;28;20034;-64
2020/12/13 10:09:11;;;;;;;4.78;3.80;;;8.00;90.10;;;;;;5025300;28;20029;-63
2020/12/13 10:11:40;;;;;;;6.32;4.00;;;8.00;90.00;;;;;;5030283;28;20041;-64
2020/12/13 10:14:11;;;;;;;3.63;3.33;;;8.00;90.00;;;;;;5031890;28;20029;-63
2020/12/13 10:16:38;;;;;;;5.10;3.90;;;8.00;90.00;;;;;;5016236;28;20116;-63
2020/12/13 10:19:04;;;;;;;6.53;4.50;;;8.00;90.00;;;;;;5033558;28;20021;-63
2020/12/13 10:21:31;;;;;;;4.90;4.20;;;8.10;90.00;;;;;;5033979;28;20045;-63
2020/12/13 10:23:57;;;;;;;5.72;4.50;;;8.10;90.00;;;;;;5016824;28;20493;-63
2020/12/13 10:26:24;;;;;;;5.95;4.57;;;8.20;89.90;;;;;;5034239;28;20026;-64
2020/12/13 10:28:51;;;;;;;5.70;4.10;;;8.20;89.80;;;;;;5034529;28;20033;-64
2020/12/13 10:31:17;;;;;;;5.30;4.38;;;8.20;89.70;;;;;;5013908;28;20038;-64
2020/12/13 10:33:43;;;;;;;4.80;4.30;;;8.20;89.70;;;;;;5034380;28;20021;-63
2020/12/13 10:36:13;;;;;;;4.32;3.92;;;8.20;89.60;;;;;;5034475;28;20025;-64
2020/12/13 10:38:40;;;;;;;4.65;4.07;;;8.20;89.30;;;;;;5033119;28;20132;-64
2020/12/13 10:41:09;;;;;;;4.95;4.28;;;8.20;89.40;;;;;;5032441;28;20046;-66
2020/12/13 10:43:36;;;;;;;29.05;17.42;;;8.20;89.50;;;;;;5033592;28;20037;-63
2020/12/13 10:46:05;;;;;;;6.47;4.60;;;8.20;89.70;;;;;;5034396;28;20616;-64
2020/12/13 10:48:32;;;;;;;5.80;5.18;;;8.20;89.70;;;;;;5033777;28;20467;-63
2020/12/13 10:50:58;;;;;;;7.05;5.10;;;8.20;89.70;;;;;;5031389;28;20041;-64
2020/12/13 10:53:24;;;;;;;9.82;5.93;;;8.20;89.40;;;;;;5033835;28;20096;-65
2020/12/13 10:55:49;;;;;;;5.97;4.60;;;8.20;89.10;;;;;;5032283;28;20022;-65
2020/12/13 10:58:15;;;;;;;5.68;5.10;;;8.10;89.20;;;;;;5028431;28;20042;-65
2020/12/13 11:00:41;;;;;;;8.57;5.22;;;8.10;89.30;;;;;;5032021;28;20017;-64
2020/12/13 11:03:06;;;;;;;11.32;6.40;;;8.10;89.50;;;;;;5033249;28;20048;-64
2020/12/13 11:05:32;;;;;;;7.32;5.03;;;8.10;89.40;;;;;;5030516;28;20033;-64
2020/12/13 11:07:57;;;;;;;6.32;5.43;;;8.10;89.10;;;;;;5032696;28;20037;-63
2020/12/13 11:10:23;;;;;;;10.25;6.38;;;8.10;89.20;;;;;;5032372;28;20018;-64
2020/12/13 11:12:48;;;;;;;6.82;5.80;;;8.10;89.20;;;;;;5032604;28;20482;-64
2020/12/13 11:15:14;;;;;;;10.88;5.90;;;8.10;89.30;;;;;;5030365;28;20029;-63
2020/12/13 11:17:39;;;;;;;7.75;6.25;;;8.10;89.30;;;;;;5032494;28;20029;-63
2020/12/13 11:20:05;;;;;;;9.77;6.22;;;8.10;89.30;;;;;;5031136;28;20565;-64
2020/12/13 11:22:31;;;;;;;7.90;6.15;;;8.10;89.20;;;;;;5032104;28;20038;-64
2020/12/13 11:24:57;;;;;;;8.65;6.03;;;8.10;89.20;;;;;;5032763;28;20021;-63
2020/12/13 11:27:23;;;;;;;9.57;7.50;;;8.20;89.30;;;;;;5033018;28;20425;-63
2020/12/13 11:29:48;;;;;;;16.83;11.25;;;8.10;89.00;;;;;;5029613;28;20055;-64
2020/12/13 11:32:14;;;;;;;10.75;7.50;;;8.10;89.10;;;;;;5029590;28;20029;-63
2020/12/13 11:34:40;;;;;;;11.88;8.32;;;8.10;89.10;;;;;;5032887;28;20072;-63
2020/12/13 11:37:06;;;;;;;10.93;8.18;;;8.10;88.90;;;;;;5032302;28;20611;-63
2020/12/13 11:39:32;;;;;;;10.90;7.57;;;8.00;88.80;;;;;;5031747;28;20033;-64
2020/12/13 11:41:59;;;;;;;11.45;7.40;;;8.00;88.90;;;;;;5031219;28;20042;-63
2020/12/13 11:44:25;;;;;;;10.95;7.30;;;8.00;89.00;;;;;;5029771;28;20030;-63
2020/12/13 11:46:50;;;;;;;11.18;7.35;;;8.00;89.20;;;;;;5031856;28;20583;-64
2020/12/13 11:49:16;;;;;;;10.13;7.07;;;8.00;89.10;;;;;;5030867;28;20017;-64
2020/12/13 11:51:43;;;;;;;7.50;5.90;;;8.00;88.90;;;;;;5030415;28;20045;-65
2020/12/13 11:54:09;;;;;;;7.60;6.20;;;8.00;88.80;;;;;;5031691;28;20025;-63
2020/12/13 11:56:34;;;;;;;12.77;6.63;;;8.00;88.80;;;;;;5031107;28;20060;-63
2020/12/13 11:59:00;;;;;;;7.68;6.18;;;8.10;89.00;;;;;;5031057;28;20443;-64
2020/12/13 12:01:25;;;;;;;6.43;5.40;;;8.10;88.90;;;;;;5030723;28;20100;-63
2020/12/13 12:03:51;;;;;;;8.32;5.93;;;8.10;88.50;;;;;;5027485;28;20041;-63
2020/12/13 12:06:16;;;;;;;7.10;5.43;;;8.20;88.50;;;;;;5032072;28;20026;-63
2020/12/13 12:08:43;;;;;;;7.93;5.72;;;8.20;88.50;;;;;;5030928;28;20459;-63
2020/12/13 12:11:09;;;;;;;7.72;5.22;;;8.20;88.40;;;;;;5029030;28;20486;-65
2020/12/13 12:13:34;;;;;;;11.25;6.15;;;8.20;88.30;;;;;;5031336;28;20112;-63
2020/12/13 12:16:00;;;;;;;9.52;5.72;;;8.20;88.20;;;;;;5031972;28;20060;-63
2020/12/13 12:18:25;;;;;;;8.48;5.85;;;8.30;88.50;;;;;;5030574;28;20068;-64
2020/12/13 12:20:53;;;;;;;7.68;5.72;;;8.30;88.40;;;;;;5029325;28;20046;-64
2020/12/13 12:23:18;;;;;;;6.55;4.95;;;8.30;88.70;;;;;;5031063;28;20037;-63
2020/12/13 12:25:51;;;;;;;10.73;5.25;;;8.30;88.20;;;;;;5031660;28;20516;-63
2020/12/13 12:28:17;;;;;;;6.10;4.35;;;8.40;87.80;;;;;;5031421;28;20057;-63
2020/12/13 12:30:44;;;;;;;4.82;4.20;;;8.40;87.70;;;;;;5029735;28;20116;-64
2020/12/13 12:33:09;;;;;;;5.50;3.90;;;8.40;87.80;;;;;;5030773;28;20552;-64
2020/12/13 12:35:35;;;;;;;6.80;3.60;;;8.40;87.80;;;;;;5031860;28;20072;-64
2020/12/13 12:38:00;;;;;;;5.63;3.40;;;8.40;87.40;;;;;;5012756;28;20044;-63
2020/12/13 12:40:26;;;;;;;5.05;3.30;;;8.40;87.00;;;;;;5023032;28;20033;-64
2020/12/13 12:42:53;;;;;;;4.00;3.45;;;8.30;87.20;;;;;;5030312;28;20041;-64
2020/12/13 12:45:19;;;;;;;4.38;3.00;;;8.30;87.10;;;;;;5030491;28;20025;-64
2020/12/13 12:47:44;;;;;;;3.30;3.00;;;8.30;87.00;;;;;;5028177;28;20477;-64
2020/12/13 12:50:10;;;;;;;4.22;3.10;;;8.30;87.10;;;;;;5027259;28;20733;-63
2020/12/13 12:52:35;;;;;;;5.70;3.00;;;8.30;87.00;;;;;;5028602;28;20069;-62
2020/12/13 12:55:01;;;;;;;4.30;3.28;;;8.30;86.90;;;;;;5029317;28;20034;-64
2020/12/13 12:57:27;;;;;;;4.22;2.72;;;8.30;86.80;;;;;;5022723;28;20086;-64